Time;durP1;ratioP1;P1;durP2;ratioP2;P2;SDS_P1;SDS_P2;PMS_P1;PMS_P2;Temp;Humidity;BMP_temperature;BMP_pressure;BME280_temperature;BME280_humidity;BME280_pressure;Samples;Min_cycle;Max_cycle;Signal;HPM_P1;HPM_P2
2022/06/20 00:00:11;;;;;;;;;;;27.80;51.50;;;;;;5004625;28;19918;-66
2022/06/20 00:02:37;;;;;;;;;;;27.80;51.50;;;;;;5003831;28;19924;-66
2022/06/20 00:05:02;;;;;;;;;;;27.80;51.20;;;;;;5004137;28;19921;-66
2022/06/20 00:07:27;;;;;;;;;;;27.60;51.60;;;;;;5004305;28;19913;-68
2022/06/20 00:09:53;;;;;;;;;;;27.60;51.60;;;;;;5004751;28;19913;-66
2022/06/20 00:12:19;;;;;;;;;;;27.60;51.60;;;;;;5004001;28;20296;-66
2022/06/20 00:14:45;;;;;;;;;;;27.70;51.40;;;;;;5005729;28;19984;-67
2022/06/20 00:17:12;;;;;;;;;;;27.60;51.40;;;;;;4987708;28;20400;-66
2022/06/20 00:19:37;;;;;;;;;;;27.60;51.40;;;;;;5004168;28;20605;-66
2022/06/20 00:22:03;;;;;;;;;;;27.60;51.30;;;;;;5003605;28;20015;-66
2022/06/20 00:24:30;;;;;;;;;;;27.60;51.50;;;;;;5005437;28;19918;-66
2022/06/20 00:26:55;;;;;;;;;;;27.50;50.70;;;;;;5005854;28;19920;-66
2022/06/20 00:29:21;;;;;;;;;;;27.40;51.90;;;;;;5004131;28;19914;-65
2022/06/20 00:31:46;;;;;;;;;;;27.40;52.00;;;;;;5003179;28;19917;-66
2022/06/20 00:34:13;;;;;;;;;;;27.40;51.70;;;;;;5004218;28;19964;-66
2022/06/20 00:36:39;;;;;;;;;;;27.50;51.60;;;;;;5003748;28;19921;-66
2022/06/20 00:39:04;;;;;;;;;;;27.50;51.60;;;;;;5005344;28;20347;-66
2022/06/20 00:41:30;;;;;;;;;;;27.50;51.70;;;;;;5003134;28;19917;-66
2022/06/20 00:43:55;;;;;;;;;;;27.50;52.30;;;;;;5004160;28;20000;-66
2022/06/20 00:46:25;;;;;;;;;;;27.50;51.60;;;;;;5003473;28;19941;-66
2022/06/20 00:49:03;;;;;;;;;;;27.50;51.60;;;;;;5003733;28;19948;-65
2022/06/20 00:51:43;;;;;;;;;;;27.50;51.60;;;;;;5004253;28;19913;-66
2022/06/20 00:54:24;;;;;;;;;;;27.50;51.60;;;;;;5019715;28;19914;-65
2022/06/20 00:56:53;;;;;;;;;;;27.50;51.60;;;;;;5004716;28;20008;-65
2022/06/20 00:59:20;;;;;;;;;;;27.50;51.70;;;;;;5003708;28;19945;-65
2022/06/20 01:01:46;;;;;;;;;;;27.50;51.60;;;;;;4996742;28;19921;-66
2022/06/20 01:04:16;;;;;;;;;;;27.60;51.70;;;;;;5019516;28;19920;-65
2022/06/20 01:06:49;;;;;;;;;;;27.50;51.80;;;;;;5002942;28;19917;-65
2022/06/20 01:09:15;;;;;;;;;;;27.50;51.70;;;;;;5003534;28;19922;-66
2022/06/20 01:11:47;;;;;;;;;;;27.50;51.60;;;;;;5003185;28;19921;-66
2022/06/20 01:14:23;;;;;;;;;;;27.50;51.70;;;;;;5004753;28;19952;-66
2022/06/20 01:16:48;;;;;;;;;;;27.50;51.70;;;;;;5004672;28;19996;-65
2022/06/20 01:19:17;;;;;;;;;;;27.50;51.70;;;;;;5003246;28;20017;-66
2022/06/20 01:21:43;;;;;;;;;;;27.50;51.70;;;;;;5003916;28;20467;-66
2022/06/20 01:24:30;;;;;;;;;;;27.50;51.80;;;;;;5003404;28;19920;-66
2022/06/20 01:27:16;;;;;;;;;;;27.50;51.80;;;;;;5002900;28;19975;-66
2022/06/20 01:29:41;;;;;;;;;;;27.50;51.90;;;;;;5003009;28;20670;-65
2022/06/20 01:32:06;;;;;;;;;;;27.50;51.90;;;;;;5003918;28;20003;-65
2022/06/20 01:34:32;;;;;;;;;;;27.50;51.90;;;;;;5002820;28;19913;-66
2022/06/20 01:39:46;;;;;;;;;;;27.30;52.10;;;;;;5002964;28;19921;-66
2022/06/20 01:42:20;;;;;;;;;;;27.40;52.20;;;;;;5002152;28;20147;-65
2022/06/20 01:44:52;;;;;;;;;;;27.40;52.10;;;;;;5002582;28;19959;-66
2022/06/20 01:47:17;;;;;;;;;;;27.40;52.00;;;;;;5004028;28;19918;-66
2022/06/20 01:49:43;;;;;;;;;;;27.40;51.90;;;;;;5004196;28;19914;-65
2022/06/20 01:52:08;;;;;;;;;;;27.40;51.90;;;;;;4985868;28;20347;-66
2022/06/20 01:54:38;;;;;;;;;;;27.50;51.90;;;;;;5003528;28;19952;-65
2022/06/20 01:57:05;;;;;;;;;;;27.40;51.80;;;;;;5002637;28;20467;-66
2022/06/20 01:59:32;;;;;;;;;;;27.30;51.70;;;;;;5002941;28;19913;-66
2022/06/20 02:01:58;;;;;;;;;;;27.40;51.80;;;;;;5003128;28;19975;-64
2022/06/20 02:04:25;;;;;;;;;;;27.40;51.80;;;;;;5003100;28;20376;-66
2022/06/20 02:06:50;;;;;;;;;;;27.40;51.80;;;;;;5002947;28;19932;-65
2022/06/20 02:09:16;;;;;;;;;;;27.40;51.80;;;;;;5003976;28;19918;-65
2022/06/20 02:11:42;;;;;;;;;;;27.40;51.80;;;;;;5002097;28;19924;-66
2022/06/20 02:14:15;;;;;;;;;;;27.40;51.80;;;;;;5003984;28;19921;-66
2022/06/20 02:16:41;;;;;;;;;;;27.30;51.70;;;;;;5002316;28;19914;-65
2022/06/20 02:19:07;;;;;;;;;;;27.30;51.70;;;;;;5002779;28;19925;-65
2022/06/20 02:21:32;;;;;;;;;;;27.30;51.60;;;;;;5003034;28;19925;-65
2022/06/20 02:24:03;;;;;;;;;;;27.30;51.60;;;;;;4978560;28;19916;-66
2022/06/20 02:26:29;;;;;;;;;;;27.30;51.70;;;;;;5003227;28;20470;-66
2022/06/20 02:28:56;;;;;;;;;;;27.30;51.60;;;;;;5002187;28;19921;-66
2022/06/20 02:31:22;;;;;;;;;;;27.30;51.60;;;;;;5003352;28;19913;-65
2022/06/20 02:33:47;;;;;;;;;;;27.30;51.60;;;;;;5002856;28;20435;-65
2022/06/20 02:36:13;;;;;;;;;;;27.30;51.50;;;;;;5003590;28;19928;-66
2022/06/20 02:38:38;;;;;;;;;;;27.30;51.60;;;;;;4987797;28;19913;-65
2022/06/20 02:41:04;;;;;;;;;;;27.30;52.10;;;;;;4986904;28;19914;-65
2022/06/20 02:43:29;;;;;;;;;;;27.30;51.40;;;;;;5003817;28;19918;-65
2022/06/20 02:45:55;;;;;;;;;;;27.30;51.40;;;;;;5005739;28;20004;-66
2022/06/20 02:48:21;;;;;;;;;;;27.30;51.40;;;;;;5003734;28;19924;-65
2022/06/20 02:50:50;;;;;;;;;;;27.20;51.40;;;;;;5003361;28;20563;-66
2022/06/20 02:53:22;;;;;;;;;;;27.20;51.40;;;;;;5004145;28;19921;-65
2022/06/20 02:55:47;;;;;;;;;;;27.20;51.60;;;;;;5005022;28;19917;-65
2022/06/20 02:58:17;;;;;;;;;;;27.20;51.50;;;;;;5008101;28;19964;-65
2022/06/20 03:00:44;;;;;;;;;;;27.20;51.60;;;;;;5007165;28;19914;-66
2022/06/20 03:03:11;;;;;;;;;;;27.20;51.30;;;;;;5006921;28;19924;-65
2022/06/20 03:05:37;;;;;;;;;;;27.20;51.30;;;;;;5005715;28;19994;-66
2022/06/20 03:08:02;;;;;;;;;;;27.20;51.30;;;;;;5016557;28;19917;-66
2022/06/20 03:10:28;;;;;;;;;;;27.20;51.30;;;;;;5017658;28;20650;-66
2022/06/20 03:12:53;;;;;;;;;;;27.20;51.30;;;;;;5021457;28;19964;-66
2022/06/20 03:15:19;;;;;;;;;;;27.10;51.30;;;;;;5006927;28;19960;-66
2022/06/20 03:17:45;;;;;;;;;;;27.20;51.30;;;;;;5005393;28;19918;-65
2022/06/20 03:20:14;;;;;;;;;;;27.20;51.40;;;;;;5006966;28;19918;-65
2022/06/20 03:22:41;;;;;;;;;;;27.10;51.40;;;;;;5004074;28;20277;-66
2022/06/20 03:25:07;;;;;;;;;;;27.10;51.40;;;;;;5006560;28;19913;-65
2022/06/20 03:27:33;;;;;;;;;;;27.10;51.30;;;;;;5006155;28;19963;-65
2022/06/20 03:30:04;;;;;;;;;;;26.90;51.50;;;;;;5004185;28;20005;-65
2022/06/20 03:32:29;;;;;;;;;;;27.00;51.50;;;;;;5004541;28;19936;-64
2022/06/20 03:34:55;;;;;;;;;;;27.00;51.20;;;;;;5004949;28;19913;-66
2022/06/20 03:37:20;;;;;;;;;;;27.10;51.10;;;;;;5006409;28;19918;-66
2022/06/20 03:39:45;;;;;;;;;;;27.10;51.00;;;;;;5003776;28;20460;-65
2022/06/20 03:42:11;;;;;;;;;;;27.10;50.90;;;;;;5013290;28;19918;-65
2022/06/20 03:44:37;;;;;;;;;;;27.00;50.80;;;;;;5004673;28;19913;-66
2022/06/20 03:47:04;;;;;;;;;;;27.00;50.80;;;;;;5005470;28;20016;-65
2022/06/20 03:49:32;;;;;;;;;;;27.10;50.80;;;;;;5004851;28;20364;-65
2022/06/20 03:52:02;;;;;;;;;;;27.00;50.60;;;;;;5004783;28;19918;-66
2022/06/20 03:54:30;;;;;;;;;;;27.00;50.60;;;;;;5004614;28;19921;-66
2022/06/20 03:57:03;;;;;;;;;;;27.00;50.60;;;;;;5004509;28;19917;-66
2022/06/20 03:59:30;;;;;;;;;;;27.00;50.50;;;;;;5004210;28;21538;-65
2022/06/20 04:02:03;;;;;;;;;;;27.00;50.50;;;;;;5004536;28;19924;-66
2022/06/20 04:04:30;;;;;;;;;;;27.00;50.40;;;;;;5005017;28;19974;-65
2022/06/20 04:06:57;;;;;;;;;;;27.00;50.40;;;;;;5004550;28;19917;-65
2022/06/20 04:12:23;;;;;;;;;;;26.90;50.20;;;;;;5005314;28;19920;-66
2022/06/20 04:14:52;;;;;;;;;;;27.00;50.30;;;;;;4992192;28;20486;-65
2022/06/20 04:20:03;;;;;;;;;;;26.90;50.20;;;;;;5013156;28;20023;-66
2022/06/20 04:22:30;;;;;;;;;;;26.90;50.20;;;;;;5003419;28;20400;-65
2022/06/20 04:25:04;;;;;;;;;;;26.90;50.00;;;;;;5003547;28;20539;-65
2022/06/20 04:27:31;;;;;;;;;;;26.90;50.00;;;;;;4987606;28;20536;-66
2022/06/20 04:30:01;;;;;;;;;;;26.90;50.10;;;;;;5003532;28;19914;-66
2022/06/20 04:32:30;;;;;;;;;;;26.90;50.10;;;;;;5003258;28;19914;-66
2022/06/20 04:34:56;;;;;;;;;;;26.80;50.00;;;;;;5003692;28;19925;-66
2022/06/20 04:37:42;;;;;;;;;;;26.80;50.50;;;;;;5003815;28;20580;-65
2022/06/20 04:40:19;;;;;;;;;;;26.70;50.80;;;;;;4993749;28;19914;-66
2022/06/20 04:42:52;;;;;;;;;;;26.70;51.00;;;;;;5004759;28;19917;-66
2022/06/20 04:45:26;;;;;;;;;;;26.70;50.80;;;;;;5003504;28;20315;-66
2022/06/20 04:47:51;;;;;;;;;;;26.60;50.50;;;;;;5004536;28;20402;-67
2022/06/20 04:50:18;;;;;;;;;;;26.70;50.80;;;;;;5004884;28;19918;-65
2022/06/20 04:52:43;;;;;;;;;;;26.70;50.90;;;;;;5003196;28;19913;-66
2022/06/20 04:55:11;;;;;;;;;;;26.70;50.90;;;;;;5003751;28;19920;-66
2022/06/20 04:57:37;;;;;;;;;;;26.70;51.00;;;;;;5003390;28;19914;-67
2022/06/20 05:00:03;;;;;;;;;;;26.70;51.30;;;;;;5003975;28;20316;-66
2022/06/20 05:02:29;;;;;;;;;;;26.70;51.20;;;;;;5003957;28;19922;-66
2022/06/20 05:04:55;;;;;;;;;;;26.70;51.30;;;;;;5004319;28;20273;-65
2022/06/20 05:07:21;;;;;;;;;;;26.70;51.40;;;;;;5003365;28;20649;-66
2022/06/20 05:09:49;;;;;;;;;;;26.70;51.40;;;;;;5003328;28;20250;-66
2022/06/20 05:12:19;;;;;;;;;;;26.70;51.40;;;;;;4985960;28;19913;-65
2022/06/20 05:14:47;;;;;;;;;;;26.70;51.40;;;;;;5002967;28;19913;-65
2022/06/20 05:17:15;;;;;;;;;;;26.70;51.40;;;;;;5003148;28;19981;-65
2022/06/20 05:19:41;;;;;;;;;;;26.70;51.90;;;;;;5002402;28;19913;-66
2022/06/20 05:22:11;;;;;;;;;;;26.70;51.30;;;;;;4986368;28;20315;-66
2022/06/20 05:24:37;;;;;;;;;;;26.70;51.40;;;;;;5004041;28;20350;-65
2022/06/20 05:27:06;;;;;;;;;;;26.70;51.40;;;;;;5003442;28;20012;-66
2022/06/20 05:29:32;;;;;;;;;;;26.70;51.40;;;;;;5002950;28;19963;-66
2022/06/20 05:31:58;;;;;;;;;;;26.70;51.40;;;;;;5003673;28;20365;-66
2022/06/20 05:34:25;;;;;;;;;;;26.70;51.40;;;;;;5003224;28;19914;-66
2022/06/20 05:36:54;;;;;;;;;;;26.70;51.60;;;;;;5003368;28;19924;-65
2022/06/20 05:39:40;;;;;;;;;;;26.70;50.60;;;;;;5003438;28;19914;-65
2022/06/20 05:42:06;;;;;;;;;;;26.50;51.20;;;;;;5004349;28;19979;-67
2022/06/20 05:44:31;;;;;;;;;;;26.60;51.20;;;;;;5002317;28;20396;-66
2022/06/20 05:46:59;;;;;;;;;;;26.60;51.10;;;;;;4986043;28;20011;-66
2022/06/20 05:49:33;;;;;;;;;;;26.50;50.60;;;;;;5003983;28;19945;-66
2022/06/20 05:51:59;;;;;;;;;;;26.50;50.60;;;;;;4986006;28;19922;-66
2022/06/20 05:54:32;;;;;;;;;;;26.50;50.20;;;;;;4986103;28;19914;-66
2022/06/20 05:57:01;;;;;;;;;;;26.50;49.70;;;;;;5002374;28;19921;-66
2022/06/20 05:59:27;;;;;;;;;;;26.30;49.80;;;;;;5002318;28;19922;-66
2022/06/20 06:01:53;;;;;;;;;;;26.10;50.70;;;;;;5004313;28;19995;-66
2022/06/20 06:04:24;;;;;;;;;;;26.20;50.20;;;;;;4987121;28;19917;-66
2022/06/20 06:06:50;;;;;;;;;;;26.30;50.30;;;;;;5003248;28;19968;-66
2022/06/20 06:09:18;;;;;;;;;;;26.20;50.50;;;;;;5002835;28;19918;-66
2022/06/20 06:11:53;;;;;;;;;;;26.20;50.60;;;;;;5004514;28;19950;-66
2022/06/20 06:14:20;;;;;;;;;;;26.30;50.40;;;;;;5003626;28;19940;-67
2022/06/20 06:16:50;;;;;;;;;;;26.30;50.50;;;;;;5004654;28;19913;-67
2022/06/20 06:19:21;;;;;;;;;;;26.30;50.60;;;;;;5002946;28;19949;-67
2022/06/20 06:21:47;;;;;;;;;;;26.30;50.70;;;;;;5002140;28;19925;-67
2022/06/20 06:24:15;;;;;;;;;;;26.30;50.90;;;;;;5003220;28;20319;-66
2022/06/20 06:26:40;;;;;;;;;;;26.30;51.10;;;;;;5003238;28;20308;-67
2022/06/20 06:29:06;;;;;;;;;;;26.20;51.30;;;;;;5003710;28;19914;-66
2022/06/20 06:31:32;;;;;;;;;;;26.20;51.40;;;;;;5005077;28;19917;-66
2022/06/20 06:33:59;;;;;;;;;;;26.20;51.30;;;;;;5007116;28;20017;-66
2022/06/20 06:36:32;;;;;;;;;;;26.20;51.50;;;;;;4990554;28;20342;-66
2022/06/20 06:39:01;;;;;;;;;;;26.20;51.40;;;;;;4990734;28;19922;-67
2022/06/20 06:41:45;;;;;;;;;;;26.20;51.50;;;;;;5006787;28;19914;-67
2022/06/20 06:44:22;;;;;;;;;;;26.30;51.50;;;;;;5006897;28;19922;-67
2022/06/20 06:46:48;;;;;;;;;;;26.30;51.60;;;;;;5006736;28;19949;-67
2022/06/20 06:49:27;;;;;;;;;;;26.20;51.50;;;;;;5008165;28;19918;-67
2022/06/20 06:51:54;;;;;;;;;;;26.20;51.80;;;;;;5006408;28;20391;-67
2022/06/20 06:54:24;;;;;;;;;;;26.20;51.80;;;;;;4990692;28;20437;-66
2022/06/20 06:57:10;;;;;;;;;;;26.00;51.90;;;;;;5006501;28;19920;-67
2022/06/20 06:59:38;;;;;;;;;;;26.10;51.90;;;;;;5008042;28;19920;-66
2022/06/20 07:02:05;;;;;;;;;;;26.10;51.70;;;;;;5008184;28;19918;-66
2022/06/20 07:04:30;;;;;;;;;;;26.20;51.70;;;;;;5007058;28;19992;-66
2022/06/20 07:06:58;;;;;;;;;;;26.20;51.70;;;;;;5010332;28;20451;-67
2022/06/20 07:09:25;;;;;;;;;;;26.20;51.60;;;;;;5007096;28;20388;-67
2022/06/20 07:11:53;;;;;;;;;;;26.00;51.90;;;;;;5006847;28;19925;-66
2022/06/20 07:14:20;;;;;;;;;;;26.10;52.00;;;;;;5007407;28;20331;-66
2022/06/20 07:16:48;;;;;;;;;;;26.10;51.90;;;;;;5008188;28;19917;-66
2022/06/20 07:19:13;;;;;;;;;;;26.10;51.80;;;;;;5007794;28;19917;-66
2022/06/20 07:21:39;;;;;;;;;;;26.10;51.80;;;;;;5006520;28;19965;-66
2022/06/20 07:24:05;;;;;;;;;;;26.10;51.80;;;;;;5007106;28;19967;-66
2022/06/20 07:26:44;;;;;;;;;;;26.10;51.90;;;;;;5005950;28;19918;-66
2022/06/20 07:29:20;;;;;;;;;;;26.10;52.40;;;;;;5006073;28;19999;-66
2022/06/20 07:31:46;;;;;;;;;;;26.10;52.70;;;;;;5007678;28;20527;-66
2022/06/20 07:34:14;;;;;;;;;;;26.10;52.70;;;;;;5005387;28;20384;-67
2022/06/20 07:37:00;;;;;;;;;;;26.10;52.60;;;;;;5006151;28;19913;-68
2022/06/20 07:39:27;;;;;;;;;;;26.00;52.70;;;;;;4987690;28;19914;-67
2022/06/20 07:41:58;;;;;;;;;;;26.10;52.70;;;;;;4985820;28;20005;-66
2022/06/20 07:44:29;;;;;;;;;;;26.10;52.90;;;;;;4986311;28;19941;-66
2022/06/20 07:46:57;;;;;;;;;;;26.10;53.10;;;;;;4988034;28;19914;-66
2022/06/20 07:49:33;;;;;;;;;;;26.00;53.20;;;;;;5021615;28;19924;-66
2022/06/20 07:52:00;;;;;;;;;;;26.10;53.30;;;;;;5005303;28;19949;-67
2022/06/20 07:54:27;;;;;;;;;;;26.00;53.10;;;;;;5005672;28;19914;-66
2022/06/20 07:56:54;;;;;;;;;;;26.10;53.10;;;;;;5005400;28;19968;-67
2022/06/20 07:59:19;;;;;;;;;;;26.10;53.20;;;;;;5005530;28;19917;-66
2022/06/20 08:01:47;;;;;;;;;;;26.00;53.10;;;;;;5006483;28;19921;-67
2022/06/20 08:04:12;;;;;;;;;;;26.00;53.20;;;;;;5006381;28;20000;-67
2022/06/20 08:06:42;;;;;;;;;;;26.00;53.20;;;;;;5005800;28;19928;-67
2022/06/20 08:09:10;;;;;;;;;;;26.00;53.30;;;;;;5005789;28;19992;-66
2022/06/20 08:11:41;;;;;;;;;;;26.00;53.10;;;;;;5001652;28;19913;-68
2022/06/20 08:14:15;;;;;;;;;;;26.00;53.20;;;;;;5005751;28;19913;-66
2022/06/20 08:16:40;;;;;;;;;;;26.00;53.30;;;;;;5004721;28;20126;-66
2022/06/20 08:19:06;;;;;;;;;;;26.00;53.30;;;;;;5005914;28;19913;-66
2022/06/20 08:21:36;;;;;;;;;;;26.00;53.30;;;;;;5004381;28;19929;-66
2022/06/20 08:24:04;;;;;;;;;;;26.00;53.40;;;;;;5004718;28;19917;-66
2022/06/20 08:26:33;;;;;;;;;;;26.00;53.40;;;;;;5005049;28;19914;-66
2022/06/20 08:28:59;;;;;;;;;;;26.00;53.40;;;;;;5006013;28;19921;-65
2022/06/20 08:31:28;;;;;;;;;;;26.00;53.40;;;;;;5004283;28;19913;-66
2022/06/20 08:33:54;;;;;;;;;;;26.00;53.40;;;;;;5004467;28;19921;-66
2022/06/20 08:36:22;;;;;;;;;;;26.00;53.40;;;;;;5004549;28;19917;-67
2022/06/20 08:39:00;;;;;;;;;;;26.00;53.50;;;;;;5005727;28;19913;-66
2022/06/20 08:41:44;;;;;;;;;;;26.00;53.50;;;;;;5005343;28;19953;-67
2022/06/20 08:44:30;;;;;;;;;;;26.00;53.50;;;;;;5005642;28;20277;-66
2022/06/20 08:47:02;;;;;;;;;;;26.00;53.50;;;;;;5004109;28;19914;-62
2022/06/20 08:49:46;;;;;;;;;;;26.00;53.60;;;;;;5004508;28;19920;-66
2022/06/20 08:52:23;;;;;;;;;;;26.00;53.70;;;;;;5005375;28;20363;-67
2022/06/20 08:55:07;;;;;;;;;;;25.90;53.50;;;;;;5003802;28;19914;-66
2022/06/20 08:57:40;;;;;;;;;;;26.00;53.70;;;;;;5005408;28;19963;-66
2022/06/20 09:00:10;;;;;;;;;;;25.90;54.10;;;;;;4994223;28;20477;-66
2022/06/20 09:02:35;;;;;;;;;;;26.00;53.70;;;;;;5004662;28;19918;-67
2022/06/20 09:05:04;;;;;;;;;;;26.00;53.80;;;;;;5005584;28;19975;-66
2022/06/20 09:07:29;;;;;;;;;;;26.00;53.80;;;;;;5005405;28;20376;-66
2022/06/20 09:10:04;;;;;;;;;;;25.90;53.70;;;;;;5004534;28;19913;-66
2022/06/20 09:12:32;;;;;;;;;;;25.90;53.60;;;;;;5004858;28;19913;-66
2022/06/20 09:14:57;;;;;;;;;;;25.90;53.60;;;;;;5005242;28;19939;-66
2022/06/20 09:17:25;;;;;;;;;;;26.00;53.60;;;;;;5005377;28;19917;-66
2022/06/20 09:20:03;;;;;;;;;;;25.90;53.50;;;;;;5003715;28;19920;-67
2022/06/20 09:22:34;;;;;;;;;;;25.90;53.60;;;;;;4987107;28;19976;-66
2022/06/20 09:25:08;;;;;;;;;;;25.90;53.70;;;;;;5005015;28;19918;-67
2022/06/20 09:27:44;;;;;;;;;;;25.90;53.80;;;;;;4987711;28;19953;-66
2022/06/20 09:30:19;;;;;;;;;;;25.90;53.80;;;;;;4992922;28;20502;-67
2022/06/20 09:33:02;;;;;;;;;;;25.90;53.90;;;;;;5003559;28;20427;-65
2022/06/20 09:35:43;;;;;;;;;;;25.90;54.00;;;;;;5005060;28;19913;-66
2022/06/20 09:38:08;;;;;;;;;;;25.90;53.90;;;;;;5005822;28;19922;-66
2022/06/20 09:40:44;;;;;;;;;;;25.90;54.00;;;;;;5005044;28;19914;-67
2022/06/20 09:43:14;;;;;;;;;;;25.90;53.90;;;;;;5004899;28;19924;-66
2022/06/20 09:45:55;;;;;;;;;;;25.90;53.90;;;;;;5003139;28;19985;-66
2022/06/20 09:48:23;;;;;;;;;;;25.90;53.90;;;;;;5004985;28;19913;-66
2022/06/20 09:50:52;;;;;;;;;;;25.90;54.00;;;;;;5004740;28;19921;-61
2022/06/20 09:53:34;;;;;;;;;;;25.90;54.00;;;;;;5004608;28;20012;-66
2022/06/20 09:56:03;;;;;;;;;;;25.90;54.70;;;;;;5004371;28;19971;-66
2022/06/20 09:58:47;;;;;;;;;;;25.90;54.10;;;;;;5005004;28;20320;-66
2022/06/20 10:01:29;;;;;;;;;;;25.90;54.00;;;;;;5004449;28;19914;-65
2022/06/20 10:04:15;;;;;;;;;;;25.90;54.00;;;;;;4986908;28;19924;-65
2022/06/20 10:06:56;;;;;;;;;;;25.90;54.10;;;;;;4986333;28;20753;-67
2022/06/20 10:09:27;;;;;;;;;;;25.90;54.10;;;;;;5002952;28;19921;-67
2022/06/20 10:11:59;;;;;;;;;;;25.90;54.10;;;;;;4983364;28;20472;-66
2022/06/20 10:14:27;;;;;;;;;;;25.90;54.00;;;;;;4983788;28;20451;-66
2022/06/20 10:17:06;;;;;;;;;;;25.80;53.90;;;;;;5003030;28;19913;-66
2022/06/20 10:19:36;;;;;;;;;;;25.80;53.80;;;;;;4987031;28;20368;-66
2022/06/20 10:22:08;;;;;;;;;;;25.80;53.80;;;;;;4999188;28;20391;-66
2022/06/20 10:24:42;;;;;;;;;;;25.80;53.90;;;;;;4984922;28;19914;-65
2022/06/20 10:27:23;;;;;;;;;;;25.80;53.80;;;;;;4973901;28;19913;-65
2022/06/20 10:29:59;;;;;;;;;;;25.80;53.90;;;;;;4985222;28;20401;-62
2022/06/20 10:32:34;;;;;;;;;;;25.80;54.00;;;;;;5002350;28;20395;-63
2022/06/20 10:35:12;;;;;;;;;;;25.80;54.00;;;;;;5003029;28;20384;-64
2022/06/20 10:37:57;;;;;;;;;;;25.70;53.90;;;;;;5003184;28;19993;-64
2022/06/20 10:40:43;;;;;;;;;;;25.70;54.10;;;;;;5003730;28;20296;-63
2022/06/20 10:43:09;;;;;;;;;;;25.70;54.10;;;;;;4991329;28;20690;-62
2022/06/20 10:45:40;;;;;;;;;;;25.70;54.80;;;;;;5002965;28;19917;-63
2022/06/20 10:48:27;;;;;;;;;;;25.70;53.90;;;;;;4999645;28;19925;-64
2022/06/20 10:51:01;;;;;;;;;;;25.50;54.70;;;;;;5002124;28;20474;-63
2022/06/20 10:53:28;;;;;;;;;;;25.60;54.70;;;;;;5004549;28;19945;-58
2022/06/20 10:55:55;;;;;;;;;;;25.60;54.20;;;;;;5003281;28;19964;-63
2022/06/20 10:58:36;;;;;;;;;;;25.10;55.60;;;;;;5002943;28;19918;-62
2022/06/20 11:01:06;;;;;;;;;;;25.00;55.80;;;;;;5002696;28;19917;-58
2022/06/20 11:03:37;;;;;;;;;;;25.30;55.20;;;;;;5002555;28;19928;-63
2022/06/20 11:06:23;;;;;;;;;;;25.40;55.10;;;;;;5004272;28;19913;-60
2022/06/20 11:08:53;;;;;;;;;;;25.50;54.60;;;;;;5002403;28;19964;-60
2022/06/20 11:11:39;;;;;;;;;;;25.50;54.70;;;;;;4985994;28;19914;-63
2022/06/20 11:14:43;;;;;;;;;;;25.50;54.70;;;;;;5003973;28;20319;-63
2022/06/20 11:17:11;;;;;;;;;;;25.50;54.50;;;;;;4995139;28;20411;-63
2022/06/20 11:19:39;;;;;;;;;;;25.30;54.90;;;;;;5004533;28;19917;-63
2022/06/20 11:22:10;;;;;;;;;;;25.10;55.40;;;;;;4989032;28;19922;-63
2022/06/20 11:24:53;;;;;;;;;;;25.30;55.30;;;;;;4986446;28;20008;-65
2022/06/20 11:27:25;;;;;;;;;;;25.50;55.20;;;;;;4999011;28;20020;-63
2022/06/20 11:30:02;;;;;;;;;;;25.40;54.40;;;;;;5007733;28;19920;-63
2022/06/20 11:32:38;;;;;;;;;;;25.40;55.40;;;;;;5007232;28;19920;-64
2022/06/20 11:35:15;;;;;;;;;;;25.30;55.20;;;;;;5006011;28;20311;-65
2022/06/20 11:37:50;;;;;;;;;;;25.50;55.30;;;;;;5007153;28;19963;-65
2022/06/20 11:40:30;;;;;;;;;;;25.30;55.30;;;;;;5007571;28;19914;-65
2022/06/20 11:43:00;;;;;;;;;;;25.10;55.60;;;;;;5005086;28;20354;-64
2022/06/20 11:45:35;;;;;;;;;;;25.20;56.70;;;;;;5006488;28;20464;-65
2022/06/20 11:48:00;;;;;;;;;;;25.30;56.00;;;;;;5007117;28;19965;-65
2022/06/20 11:50:29;;;;;;;;;;;25.30;55.90;;;;;;5008910;28;19991;-64
2022/06/20 11:53:14;;;;;;;;;;;25.30;56.30;;;;;;5008035;28;20420;-64
2022/06/20 11:55:47;;;;;;;;;;;25.40;55.50;;;;;;5008122;28;19913;-64
2022/06/20 11:58:17;;;;;;;;;;;25.40;55.30;;;;;;5007252;28;20033;-64
2022/06/20 12:00:50;;;;;;;;;;;25.50;55.20;;;;;;5005668;28;20012;-63
2022/06/20 12:03:30;;;;;;;;;;;25.50;55.10;;;;;;5005167;28;19922;-65
2022/06/20 12:05:59;;;;;;;;;;;25.50;55.00;;;;;;5006831;28;19921;-65
2022/06/20 12:08:33;;;;;;;;;;;25.40;54.90;;;;;;5006609;28;19914;-65
2022/06/20 12:11:00;;;;;;;;;;;25.40;54.90;;;;;;5006333;28;19914;-64
2022/06/20 12:13:26;;;;;;;;;;;25.30;54.20;;;;;;5004957;28;20358;-65
2022/06/20 12:16:02;;;;;;;;;;;25.30;55.00;;;;;;5006493;28;19914;-64
2022/06/20 12:18:33;;;;;;;;;;;25.40;54.80;;;;;;5005029;28;19996;-64
2022/06/20 12:23:49;;;;;;;;;;;25.30;54.50;;;;;;5005257;28;20446;-64
2022/06/20 12:26:15;;;;;;;;;;;25.10;54.80;;;;;;5005180;28;19914;-65
2022/06/20 12:28:42;;;;;;;;;;;25.10;54.90;;;;;;5003928;28;20387;-65
2022/06/20 12:31:08;;;;;;;;;;;25.10;54.70;;;;;;5004520;28;20000;-64
2022/06/20 12:33:37;;;;;;;;;;;25.10;53.90;;;;;;5006037;28;20012;-65
2022/06/20 12:36:04;;;;;;;;;;;25.00;55.00;;;;;;5005088;28;19914;-64
2022/06/20 12:38:32;;;;;;;;;;;25.10;54.60;;;;;;5004913;28;19913;-64
2022/06/20 12:40:58;;;;;;;;;;;25.10;54.00;;;;;;5006048;28;19952;-64
2022/06/20 12:43:28;;;;;;;;;;;25.00;54.00;;;;;;4988607;28;19964;-65
2022/06/20 12:45:56;;;;;;;;;;;24.90;54.20;;;;;;5005635;28;19968;-65
2022/06/20 12:48:44;;;;;;;;;;;25.00;54.10;;;;;;4989091;28;20392;-65
2022/06/20 12:51:09;;;;;;;;;;;24.90;54.40;;;;;;5005203;28;20288;-65
2022/06/20 12:53:53;;;;;;;;;;;24.90;54.60;;;;;;5005486;28;19924;-66
2022/06/20 12:56:18;;;;;;;;;;;24.80;55.20;;;;;;5005860;28;19914;-65
2022/06/20 12:58:44;;;;;;;;;;;24.80;55.10;;;;;;5005292;28;19917;-63
2022/06/20 13:01:28;;;;;;;;;;;24.80;53.20;;;;;;5005354;28;20272;-64
2022/06/20 13:04:07;;;;;;;;;;;24.70;54.70;;;;;;5003400;28;21195;-64
2022/06/20 13:06:55;;;;;;;;;;;24.90;54.40;;;;;;5004280;28;19920;-64
2022/06/20 13:09:29;;;;;;;;;;;24.70;53.90;;;;;;5003180;28;20453;-64
2022/06/20 13:12:13;;;;;;;;;;;24.80;54.20;;;;;;5003696;28;19914;-64
2022/06/20 13:14:39;;;;;;;;;;;24.70;54.40;;;;;;4998733;28;20360;-64
2022/06/20 13:17:33;;;;;;;;;;;24.90;54.20;;;;;;5017634;28;20008;-64
2022/06/20 13:20:04;;;;;;;;;;;24.90;53.60;;;;;;4965785;28;20401;-65
2022/06/20 13:22:37;;;;;;;;;;;24.50;53.60;;;;;;4985161;28;19922;-65
2022/06/20 13:25:10;;;;;;;;;;;24.40;54.10;;;;;;4983860;28;21295;-65
2022/06/20 13:27:48;;;;;;;;;;;24.60;54.20;;;;;;4986050;28;19918;-65
2022/06/20 13:30:13;;;;;;;;;;;24.80;53.90;;;;;;5017271;28;20000;-65
2022/06/20 13:32:40;;;;;;;;;;;24.90;53.40;;;;;;4985146;28;19949;-64
2022/06/20 13:35:14;;;;;;;;;;;24.90;53.00;;;;;;5002658;28;19962;-64
2022/06/20 13:37:58;;;;;;;;;;;24.20;54.30;;;;;;5004898;28;20016;-65
2022/06/20 13:40:28;;;;;;;;;;;24.20;53.20;;;;;;4985232;28;20312;-66
2022/06/20 13:43:00;;;;;;;;;;;24.10;54.70;;;;;;4983738;28;19995;-64
2022/06/20 13:45:25;;;;;;;;;;;23.80;52.90;;;;;;4983858;28;20460;-62
2022/06/20 13:47:59;;;;;;;;;;;23.90;55.20;;;;;;4985152;28;19917;-65
2022/06/20 13:50:35;;;;;;;;;;;24.30;53.80;;;;;;5003502;28;19937;-65
2022/06/20 13:53:19;;;;;;;;;;;24.50;53.70;;;;;;5003295;28;20067;-64
2022/06/20 13:56:04;;;;;;;;;;;24.60;53.30;;;;;;4985153;28;19968;-65
2022/06/20 13:58:37;;;;;;;;;;;24.80;53.10;;;;;;4975319;28;19914;-65
2022/06/20 14:01:13;;;;;;;;;;;24.40;53.10;;;;;;5003430;28;19991;-66
2022/06/20 14:03:46;;;;;;;;;;;24.50;53.40;;;;;;4991547;28;19925;-65
2022/06/20 14:06:21;;;;;;;;;;;24.70;53.00;;;;;;4983945;28;19952;-65
2022/06/20 14:08:51;;;;;;;;;;;24.80;52.70;;;;;;4988437;28;19921;-65
2022/06/20 14:11:43;;;;;;;;;;;24.80;52.70;;;;;;5002880;28;19922;-59
2022/06/20 14:14:17;;;;;;;;;;;24.80;52.60;;;;;;5003421;28;20560;-65
2022/06/20 14:16:46;;;;;;;;;;;24.70;52.50;;;;;;5004308;28;19914;-65
2022/06/20 14:19:16;;;;;;;;;;;24.70;52.60;;;;;;5004467;28;20430;-65
2022/06/20 14:21:43;;;;;;;;;;;24.80;52.50;;;;;;4986048;28;19964;-65
2022/06/20 14:24:16;;;;;;;;;;;24.80;52.30;;;;;;4986772;28;19926;-65
2022/06/20 14:26:42;;;;;;;;;;;24.80;52.40;;;;;;5003429;28;19914;-67
2022/06/20 14:29:16;;;;;;;;;;;24.80;52.10;;;;;;5003292;28;19980;-65
2022/06/20 14:31:50;;;;;;;;;;;24.90;52.10;;;;;;5002875;28;20511;-65
2022/06/20 14:34:19;;;;;;;;;;;24.90;51.90;;;;;;5003671;28;20356;-65
2022/06/20 14:37:03;;;;;;;;;;;24.90;51.90;;;;;;5003202;28;19913;-65
2022/06/20 14:39:38;;;;;;;;;;;24.90;51.80;;;;;;5004363;28;20304;-65
2022/06/20 14:42:07;;;;;;;;;;;24.80;51.90;;;;;;5004170;28;19917;-65
2022/06/20 14:44:39;;;;;;;;;;;24.90;52.00;;;;;;5002434;28;19917;-67
2022/06/20 14:47:07;;;;;;;;;;;24.80;51.90;;;;;;5002855;28;20426;-64